Gapville, Kentucky
Current Conditions -  °F | °C
As of 7:35 AM on Monday 26 Jan 2015 (Local Time) from KSJS Reporting Station
Drizzle Drizzle  
Wind Chill: 38°   Ceiling: 400
Heat Index: 41°   Visibility: 5mi
Dew Point: 40°   Wind: 5mph
Humidity: 98%   Direction: 270°W
Pressure: 29.65"   Gusts: NA
Location:  37.63°N, 82.96°W
Report Text: KSJS 261235Z AUTO 27004KT 5SM DZ OVC004 05/05 A2965 RMK AO2 T00500047
Loading
Personal Weather Stations






























Interactive Weather Map New forecast layout! Learn more

10-Day Weather Forecast

Advertisements
Track Severe Weather on mobile